Startpagina
METAR-TAF:

METAR-TAF

Vliegvelden :

Luchthaven van Khartoem

Khartoem, Soedan

breedte: 15-36N, lengte: 032-33E, hoogte: 382 m

Actueel weer

Dit bericht is 36 minuten geleden gemaakt, om 10:00 UTC
Wind 11 kt uit het zuidzuidwesten
Temperatuur 33°C
Vochtigheid 44%
Druk 1012 hPa
Zicht 10 km of meer
geen wolken onder 1500 m en geen cumulonimbus

METAR: HSSS 191000Z 21011KT CAVOK 33/19 Q1012 NOSIG

Tijdstip: 13:36 (10:36 UTC)

Verwachting

Dit bericht is 5 uur en het 36 minuten geleden gemaakt, om 05:00 UTC
Verwachting geldig van 19 om 06 UTC tot 20 om 12 UTC
Wind 8 kt uit het zuidzuidwesten met uitschieters tot 18 kt
Zicht 10 km of meer
Weinig wolken op 4000 ft
Gebroken wolken op 14000 ft

TAF: HSSS 190500Z 1906/2012 20008G18KT 9999 FEW040 BKN140

Waarnemingen en weersverwachtingen van meer dan 4000 vliegvelden (METAR en TAF).

De beschikbare stations zijn de gele en rode punten op de kaart.

Ga met uw muis naar het station om de naam te zien.

Klik dan om waarnemingen en weersverwachtingen te zien.

kaart wijzigen: klik op de groene knoppen met een zwart kruis om in te zoomen, op de groene knop met een streepje om uit te zoomen of op de groene pijlen voor aangrenzende kaarten.


METAR-TAF: